x

Gulf Of Maine - 78 Nm East Of Portsmouth, Nh (44005) Wave Buoy

5:50 - Tue 30th Aug 2016 All times are EDT. -4 hours from GMT.

  • Sig Wave height 3.0ft
  • Swell Direction
  • Peak Period 11s
  • Average Period 7s
  • Wind
    11mph
  • Sea Temp 67°f
  • Air Temp 65°f
  • Sea Pressure 1020.3mb
  • Gulf Of Maine - 78 Nm East Of Portsmouth, Nh
  • Gulf Of Maine - 78 Nm East Of Portsmouth, Nh

More Historic Weather Station data

Upgrade to MSW Pro to gain access to the past 30 days of data for over 8000 Wavebouys and Weather Stations around the globe.

Join Pro

Comparision Forecast

View Surf forecast
   
mar. 08/30 5:50 3ft 11s 7s 11
mph
1020.3mb 67f 65f
4:50 2.5ft 13s 7s 9 11 mph 1020.2mb 67f 65f
3:50 3ft 12s 7s 11
mph
1020mb 67f 65f
2:50 3ft 12s 6s 11 13 mph 1019.7mb 67f 65f
1:50 3.5ft 12s 6s 16 18 mph 1019.4mb 67f 66f
12:50 4ft 12s 6s 16 20 mph 1019.5mb 67f 67f
lun. 08/29 11:50 3.5ft 12s 5s 16 18 mph 1019.3mb 67f 67f
10:50 3.5ft 12s 5s 16 20 mph 1019.5mb 67f 68f
9:50 3.5ft 12s 5s 16 18 mph 1018.7mb 67f 68f
8:50 3.5ft 12s 5s 18 22 mph 1018.4mb 67f 69f
7:50 3.5ft 12s 5s 18 22 mph 1018mb 67f 69f
6:50 3.5ft 12s 5s 16 18 mph 1017.4mb 67f 69f
5:50 3.5ft 13s 5s 16 18 mph 1016.4mb 67f 69f
4:50 3.5ft 13s 5s 16 20 mph 1016.1mb 67f 70f
3:50 3ft 13s 5s 13 16 mph 1016mb 67f 69f
2:50 3.5ft 13s 5s 13 16 mph 1015.8mb 67f 70f
1:50 3.5ft 13s 5s 11 13 mph 1015.5mb 67f 69f
12:50 4ft 13s 5s 13
mph
1014.9mb 67f 69f
11:50 4.5ft 13s 5s 16 18 mph 1014.4mb 67f 69f
10:50 5ft 6s 5s 18 20 mph 1014.8mb 67f 69f
9:50 5ft 6s 5s 20 25 mph 1014.9mb 68f 69f
8:50 5.5ft 6s 5s 22 27 mph 1015.2mb 68f 70f
7:50 5ft 6s 5s 25 29 mph 1015.5mb 68f 70f
6:50 5.5ft 6s 5s 25 31 mph 1015.5mb 68f 71f
5:50 5.5ft 5s 5s 25 29 mph 1016mb 68f 70f
4:50 5ft 5s 5s 22 27 mph 1017mb 68f 70f
3:50 5ft 5s 5s 25 31 mph 1017.7mb 68f 70f
2:50 4.5ft 5s 4s 25 29 mph 1018.2mb 68f 70f
1:50 4ft 5s 4s 22 27 mph 1019mb 68f 70f
12:50 3.5ft 5s 4s 20 27 mph 1019.6mb 68f 69f
dim. 08/28 11:50 2.5ft 4s 4s 20 25 mph 1020mb 68f 69f
10:50 3ft 4s 4s 20 25 mph 1020.4mb 68f 69f
9:50 3ft 14s 4s 18 20 mph 1021.1mb 68f 69f
8:50 2.5ft 14s 4s 20 22 mph 1021.2mb 68f 69f
7:50 2ft 15s 4s 18 20 mph 1021.7mb 69f 69f
6:50 2ft 14s 4s 16 18 mph 1022mb 69f 69f
5:50 1.6ft 9s 4s 13 16 mph 1022.6mb 69f 69f
4:50 1.6ft 9s 5s 11 13 mph 1023.3mb 70f 69f
3:50 1.6ft 8s 7s 9 11 mph 1024.3mb 69f 69f
2:50 1.6ft 7s 7s 9
mph
1024.6mb 70f 69f
1:50 1.3ft 9s 7s 7
mph
1025.3mb 69f 69f
12:50 1.3ft 9s 7s 4
mph
1025.7mb 69f 69f
11:50 1ft 8s 7s 4
mph
1026.2mb 69f 69f
10:50 1.3ft 8s 7s 7 9 mph 1026.3mb 69f 69f
9:50 1ft 9s 7s 7
mph
1026.1mb 69f 69f
8:50 1ft 8s 6s 9
mph
1026.1mb 69f 69f
7:50 1ft 9s 6s 9
mph
1026.2mb 69f 69f
6:50 1ft 8s 6s 9 11 mph 1025.8mb 69f 69f
5:50 1.3ft 9s 6s 7
mph
1025.6mb 69f 69f
3:50 1.3ft 8s 7s 7
mph
1024.7mb 69f 67f
2:50 1.6ft 9s 7s 7
mph
1025.1mb 69f 67f
1:50 1.3ft 10s 7s 7
mph
1025.3mb 69f 67f
12:50 1.3ft 8s 7s 7
mph
1025.4mb 69f 67f
sam. 08/27 10:50 1.3ft 9s 7s 2
mph
1024.6mb 70f 69f
9:50 1ft 9s 6s 2
mph
1024mb 70f 70f
8:50 1.3ft 9s 6s 2 4 mph 1023.5mb 70f 70f
7:50 1.3ft 10s 6s 4
mph
1022.8mb 71f 70f
6:50 1.3ft 8s 6s 2
mph
1022.4mb 71f 71f
5:50 1.3ft 9s 6s 4
mph
1022.1mb 71f 71f
4:50 1.3ft 8s 6s 4
mph
1022.2mb 72f 71f
3:50 1.3ft 10s 6s  -  2 mph 1022mb 71f 71f
2:50 1.3ft 8s 6s  -  mph 1022.1mb 70f 72f
1:50 1.3ft 8s 5s 7
mph
1022mb 69f 69f
12:50 1.3ft 8s 5s 9
mph
1021.8mb 69f 68f
11:50 1.3ft 8s 5s 7 9 mph 1021.9mb 69f 67f
10:50 1.3ft 8s 4s 9 11 mph 1021.8mb 68f 68f
9:50 1.3ft 8s 5s 11
mph
1021.6mb 68f 68f
8:50 1.3ft 8s 4s 7 9 mph 1020.9mb 68f 67f
7:50 1.3ft 5s 4s 11 13 mph 1020.2mb 68f 67f
6:50 1.3ft 8s 5s 13 16 mph 1019.2mb 68f 68f
5:50 1.6ft 9s 5s 11 13 mph 1018.6mb 68f 68f
4:50 1.6ft 8s 4s 13 16 mph 1018mb 68f 68f
3:50 1.6ft 6s 5s 13 16 mph 1017.7mb 68f 69f
2:50 2ft 5s 5s 11 13 mph 1017.4mb 69f 69f
1:50 2.5ft 5s 5s 13
mph
1017mb 69f 69f
12:50 2ft 5s 5s 11 13 mph 1016.6mb 69f 70f
ven. 08/26 11:50 2ft 8s 4s 13
mph
1016.1mb 69f 70f
10:50 2ft 5s 5s 16 18 mph 1015.3mb 69f 73f
9:50 2ft 5s 5s 13 16 mph 1014.7mb 69f 72f
8:50 2ft 5s 5s 11
mph
1014.4mb 69f 71f
7:50 2ft 6s 4s 11 13 mph 1013.6mb 69f 71f
6:50 2.5ft 5s 4s 9 11 mph 1013.3mb 69f 71f
5:50 2.5ft 5s 4s 7 9 mph 1013.3mb 70f 71f
4:50 2.5ft 6s 5s 4
mph
1013.4mb 69f 70f
3:50 2.5ft 6s 5s 9
mph
1013.2mb 69f 71f
2:50 3ft 5s 5s 9 11 mph 1013mb 69f 70f
1:50 3ft 5s 5s 9 11 mph 1013mb 68f 70f
12:50 3ft 6s 5s 9 11 mph 1013.6mb 68f 70f
11:50 3ft 6s 5s 11 13 mph 1014.1mb 67f 70f